createdAt,value
2023-03-13T00:02:12.604Z,93.10
2023-03-13T00:04:40.673Z,93.00
2023-03-13T00:07:10.146Z,92.90
2023-03-13T00:09:38.207Z,93.10
2023-03-13T00:12:06.952Z,92.70
2023-03-13T00:14:34.953Z,92.60
2023-03-13T00:17:03.139Z,92.70
2023-03-13T00:19:32.625Z,92.70
2023-03-13T00:22:00.649Z,93.00
2023-03-13T00:24:31.342Z,93.00
2023-03-13T00:27:03.421Z,93.20
2023-03-13T00:29:32.070Z,93.50
2023-03-13T00:32:00.110Z,93.60
2023-03-13T00:34:28.338Z,93.70
2023-03-13T00:36:57.699Z,93.70
2023-03-13T00:39:25.706Z,93.60
2023-03-13T00:41:53.656Z,93.60
2023-03-13T00:44:21.612Z,93.60
2023-03-13T00:46:49.612Z,93.40
2023-03-13T00:49:17.686Z,93.40
2023-03-13T00:51:47.493Z,93.40
2023-03-13T00:54:17.264Z,93.40
2023-03-13T00:56:46.016Z,93.40
2023-03-13T00:59:14.920Z,93.60
2023-03-13T01:01:43.031Z,93.70
2023-03-13T01:04:13.100Z,93.40
2023-03-13T01:06:43.332Z,93.40
2023-03-13T01:09:13.629Z,93.60
2023-03-13T01:11:44.093Z,93.80
2023-03-13T01:14:14.144Z,93.90
2023-03-13T01:16:42.426Z,94.10
2023-03-13T01:19:13.472Z,94.20
2023-03-13T01:21:41.969Z,94.20
2023-03-13T01:24:10.229Z,94.00
2023-03-13T01:26:38.214Z,93.90
2023-03-13T01:29:17.036Z,93.70
2023-03-13T01:31:45.143Z,93.40
2023-03-13T01:34:13.549Z,93.80
2023-03-13T01:36:41.582Z,94.00
2023-03-13T01:39:09.636Z,94.40
2023-03-13T01:41:39.135Z,94.50
2023-03-13T01:44:22.351Z,94.70
2023-03-13T01:46:50.375Z,94.50
2023-03-13T01:49:21.021Z,94.30
2023-03-13T01:51:52.912Z,94.10
2023-03-13T01:54:25.042Z,94.20
2023-03-13T01:56:55.351Z,94.40
2023-03-13T01:59:29.008Z,94.30
2023-03-13T02:02:01.497Z,94.00
2023-03-13T02:04:36.192Z,94.20
2023-03-13T02:07:08.376Z,94.50
2023-03-13T02:09:38.248Z,94.70
2023-03-13T02:12:10.941Z,94.80
2023-03-13T02:14:43.809Z,95.00
2023-03-13T02:17:12.594Z,95.10
2023-03-13T02:19:44.301Z,95.10
2023-03-13T02:22:21.856Z,94.70
2023-03-13T02:24:57.723Z,94.70
2023-03-13T02:27:27.148Z,94.30
2023-03-13T02:29:55.712Z,94.30
2023-03-13T02:32:24.690Z,94.20
2023-03-13T02:34:57.630Z,94.10
2023-03-13T02:37:28.029Z,94.10
2023-03-13T02:40:00.336Z,93.90
2023-03-13T02:42:30.483Z,94.00
2023-03-13T02:44:58.551Z,94.20
2023-03-13T02:47:27.225Z,94.60
2023-03-13T02:49:55.346Z,94.80
2023-03-13T02:52:27.137Z,95.10
2023-03-13T02:54:59.792Z,94.80
2023-03-13T02:57:29.506Z,94.90
2023-03-13T02:59:57.627Z,95.00
2023-03-13T03:02:25.651Z,95.00
2023-03-13T03:04:53.648Z,94.90
2023-03-13T03:07:21.709Z,94.90
2023-03-13T03:09:49.668Z,95.10
2023-03-13T03:12:17.647Z,95.40
2023-03-13T03:14:47.091Z,95.00
2023-03-13T03:17:15.299Z,94.90
2023-03-13T03:19:43.280Z,94.80
2023-03-13T03:22:11.598Z,94.80
2023-03-13T03:24:39.575Z,95.00
2023-03-13T03:27:07.607Z,95.20
2023-03-13T03:29:35.728Z,95.20
2023-03-13T03:32:05.211Z,95.20
2023-03-13T03:34:33.335Z,95.20
2023-03-13T03:37:01.297Z,95.10
2023-03-13T03:39:29.481Z,95.10
2023-03-13T03:41:57.467Z,95.30
2023-03-13T03:44:25.602Z,95.40
2023-03-13T03:46:53.611Z,95.40
2023-03-13T03:49:23.272Z,95.10
2023-03-13T03:51:53.277Z,94.70
2023-03-13T03:54:21.230Z,94.50
2023-03-13T03:56:49.176Z,95.10
2023-03-13T03:59:17.295Z,95.30
2023-03-13T04:01:45.835Z,95.30
2023-03-13T04:04:13.792Z,94.90
2023-03-13T04:06:43.147Z,94.90
2023-03-13T04:09:11.123Z,94.60
2023-03-13T04:11:39.051Z,94.70
2023-03-13T04:14:07.187Z,94.70
2023-03-13T04:16:35.308Z,94.60
2023-03-13T04:19:03.321Z,94.60
2023-03-13T04:21:31.281Z,95.40
2023-03-13T04:24:00.723Z,95.60
2023-03-13T04:26:28.773Z,95.70
2023-03-13T04:28:56.941Z,95.40
2023-03-13T04:31:24.999Z,95.50
2023-03-13T04:33:52.995Z,95.00
2023-03-13T04:36:20.947Z,94.80
2023-03-13T04:38:49.000Z,95.00
2023-03-13T04:41:18.310Z,94.80
2023-03-13T04:43:46.334Z,95.20
2023-03-13T04:46:14.375Z,95.40
2023-03-13T04:48:42.507Z,95.70
2023-03-13T04:51:10.776Z,95.80
2023-03-13T04:53:38.719Z,96.30
2023-03-13T04:56:07.243Z,96.50
2023-03-13T04:58:36.706Z,96.20
2023-03-13T05:01:04.862Z,95.90
2023-03-13T05:03:32.881Z,95.80
2023-03-13T05:06:00.917Z,95.90
2023-03-13T05:08:28.933Z,96.20
2023-03-13T05:10:56.883Z,96.40
2023-03-13T05:13:24.995Z,96.40
2023-03-13T05:15:54.387Z,96.90
2023-03-13T05:18:22.577Z,97.20
2023-03-13T05:20:50.635Z,97.40
2023-03-13T05:23:18.802Z,97.40
2023-03-13T05:25:46.783Z,97.10
2023-03-13T05:28:14.767Z,97.10
2023-03-13T05:30:42.863Z,96.90
2023-03-13T05:33:12.250Z,97.10
2023-03-13T05:35:40.249Z,97.20
2023-03-13T05:38:08.409Z,97.30
2023-03-13T05:40:36.391Z,97.20
2023-03-13T05:43:04.421Z,97.10
2023-03-13T05:45:32.391Z,96.90
2023-03-13T05:48:00.401Z,96.80
2023-03-13T05:50:29.867Z,96.60
2023-03-13T05:52:57.942Z,96.50
2023-03-13T05:55:25.887Z,96.50
2023-03-13T05:57:53.912Z,96.40
2023-03-13T06:00:22.240Z,96.20
2023-03-13T06:02:50.201Z,95.80
2023-03-13T06:05:18.356Z,95.80
2023-03-13T06:07:47.730Z,95.80
2023-03-13T06:10:15.795Z,95.70
2023-03-13T06:12:43.787Z,95.80
2023-03-13T06:15:12.540Z,95.70
2023-03-13T06:17:40.743Z,95.80
2023-03-13T06:20:09.813Z,95.60
2023-03-13T06:22:37.775Z,95.60
2023-03-13T06:25:08.528Z,95.40
2023-03-13T06:27:36.596Z,95.70
2023-03-13T06:30:06.183Z,95.30
2023-03-13T06:32:34.566Z,95.30
2023-03-13T06:35:02.706Z,95.40
2023-03-13T06:37:30.939Z,95.60
2023-03-13T06:39:58.905Z,96.00
2023-03-13T06:42:28.400Z,95.90
2023-03-13T06:44:56.467Z,95.70
2023-03-13T06:47:24.429Z,95.50
2023-03-13T06:49:52.453Z,95.40
2023-03-13T06:52:20.693Z,95.30
2023-03-13T06:54:50.143Z,95.40
2023-03-13T06:57:18.093Z,95.20
2023-03-13T06:59:47.542Z,95.00
2023-03-13T07:02:16.512Z,95.00
2023-03-13T07:04:46.258Z,94.90
2023-03-13T07:07:25.701Z,95.20
2023-03-13T07:09:59.105Z,95.20
2023-03-13T07:12:27.416Z,95.00
2023-03-13T07:14:56.758Z,94.60
2023-03-13T07:17:24.705Z,94.30
2023-03-13T07:19:52.799Z,94.10
2023-03-13T07:22:20.792Z,93.90
2023-03-13T07:24:49.630Z,93.90
2023-03-13T07:27:21.154Z,93.90
2023-03-13T07:29:49.287Z,93.80
2023-03-13T07:32:18.971Z,93.70
2023-03-13T07:34:46.996Z,93.50
2023-03-13T07:37:16.005Z,93.70
2023-03-13T07:39:44.634Z,94.00
2023-03-13T07:42:12.898Z,94.30
2023-03-13T07:44:41.057Z,94.10
2023-03-13T07:47:09.198Z,94.20
2023-03-13T07:49:42.354Z,94.30
2023-03-13T07:52:10.462Z,94.20
2023-03-13T07:54:38.499Z,94.10
2023-03-13T07:57:06.888Z,94.00
2023-03-13T07:59:34.920Z,93.70
2023-03-13T08:02:03.535Z,93.40
2023-03-13T08:04:31.553Z,93.20
2023-03-13T08:07:01.005Z,93.00
2023-03-13T08:09:28.988Z,93.00
2023-03-13T08:11:56.982Z,92.70
2023-03-13T08:14:25.107Z,92.50
2023-03-13T08:16:53.202Z,92.50
2023-03-13T08:19:21.324Z,92.40
2023-03-13T08:21:49.295Z,92.20
2023-03-13T08:24:18.684Z,92.00
2023-03-13T08:26:46.803Z,91.90
2023-03-13T08:29:16.400Z,91.80
2023-03-13T08:31:47.544Z,91.80
2023-03-13T08:34:17.475Z,91.80
2023-03-13T08:36:45.720Z,91.70
2023-03-13T08:39:20.292Z,91.60
2023-03-13T08:41:48.482Z,91.60
2023-03-13T08:44:18.089Z,91.60
2023-03-13T08:46:46.314Z,91.50
2023-03-13T08:49:17.508Z,91.70
2023-03-13T08:51:45.510Z,91.20
2023-03-13T08:54:13.486Z,91.40
2023-03-13T08:56:43.658Z,90.70
2023-03-13T08:59:12.577Z,90.40
2023-03-13T09:01:40.732Z,90.50
2023-03-13T09:04:09.131Z,90.40
2023-03-13T09:06:39.253Z,90.80
2023-03-13T09:09:09.053Z,90.10
2023-03-13T09:11:39.324Z,89.10
2023-03-13T09:14:09.571Z,88.20
2023-03-13T09:16:37.750Z,88.50
2023-03-13T09:19:06.035Z,88.80
2023-03-13T09:21:35.688Z,88.80
2023-03-13T09:24:04.119Z,88.20
2023-03-13T09:26:32.408Z,87.60
2023-03-13T09:29:00.694Z,87.60
2023-03-13T09:31:31.823Z,88.50
2023-03-13T09:34:00.604Z,87.70
2023-03-13T09:36:29.333Z,87.60
2023-03-13T09:38:59.285Z,87.10
2023-03-13T09:41:33.614Z,86.70
2023-03-13T09:44:05.942Z,86.80
2023-03-13T09:46:40.942Z,86.70
2023-03-13T09:49:18.287Z,86.70
2023-03-13T09:51:51.959Z,87.00
2023-03-13T09:54:26.073Z,86.90
2023-03-13T09:56:57.646Z,87.30
2023-03-13T09:59:31.420Z,87.20
2023-03-13T10:02:03.384Z,87.40
2023-03-13T10:04:36.859Z,87.70
2023-03-13T10:07:05.710Z,87.60
2023-03-13T10:09:36.939Z,87.70
2023-03-13T10:12:16.404Z,88.20
2023-03-13T10:14:48.754Z,87.00
2023-03-13T10:17:32.215Z,87.00
2023-03-13T10:20:08.601Z,87.10
2023-03-13T10:22:37.610Z,87.30
2023-03-13T10:25:10.480Z,86.70
2023-03-13T10:27:45.988Z,87.00
2023-03-13T10:30:23.885Z,87.10
2023-03-13T10:32:55.733Z,86.80
2023-03-13T10:35:25.921Z,87.90
2023-03-13T10:38:03.323Z,87.40
2023-03-13T10:40:31.760Z,87.50
2023-03-13T10:43:05.786Z,87.60
2023-03-13T10:45:36.581Z,87.60
2023-03-13T10:48:14.465Z,87.20
2023-03-13T10:50:45.621Z,87.30
2023-03-13T10:53:25.426Z,87.70
2023-03-13T10:55:58.923Z,87.40
2023-03-13T10:58:34.524Z,87.20
2023-03-13T11:01:17.754Z,87.60
2023-03-13T11:03:49.076Z,87.40
2023-03-13T11:06:29.828Z,87.70
2023-03-13T11:09:11.877Z,87.40
2023-03-13T11:11:48.895Z,87.50
2023-03-13T11:14:19.216Z,87.70
2023-03-13T11:16:52.323Z,87.50
2023-03-13T11:19:53.513Z,87.20
2023-03-13T11:22:31.382Z,87.50
2023-03-13T11:25:10.639Z,87.70
2023-03-13T11:27:46.996Z,87.70
2023-03-13T11:30:24.154Z,87.40
2023-03-13T11:32:56.417Z,87.70
2023-03-13T11:35:38.379Z,87.20
2023-03-13T11:38:12.719Z,87.30
2023-03-13T11:40:49.131Z,87.50
2023-03-13T11:43:33.185Z,87.00
2023-03-13T11:46:16.111Z,86.90
2023-03-13T11:49:01.435Z,86.90
2023-03-13T11:51:38.427Z,87.20
2023-03-13T11:54:28.556Z,87.20
2023-03-13T11:56:59.214Z,87.40
2023-03-13T11:59:38.963Z,87.40
2023-03-13T12:02:15.475Z,87.20
2023-03-13T12:04:47.730Z,87.20
2023-03-13T12:07:24.401Z,86.90
2023-03-13T12:09:58.707Z,86.20
2023-03-13T12:12:36.316Z,86.40
2023-03-13T12:15:18.524Z,86.40
2023-03-13T12:17:51.627Z,86.30
2023-03-13T12:20:25.093Z,86.10
2023-03-13T12:23:05.385Z,85.60
2023-03-13T12:25:39.717Z,86.00
2023-03-13T12:28:24.161Z,86.10
2023-03-13T12:30:59.344Z,85.70
2023-03-13T12:33:30.857Z,85.30
2023-03-13T12:36:07.279Z,85.60
2023-03-13T12:38:41.691Z,85.50
2023-03-13T12:41:20.691Z,85.00
2023-03-13T12:44:07.315Z,84.70
2023-03-13T12:46:40.369Z,85.40
2023-03-13T12:49:28.622Z,85.20
2023-03-13T12:52:15.685Z,85.00
2023-03-13T12:55:17.902Z,85.30
2023-03-13T12:58:22.621Z,85.00
2023-03-13T13:00:53.202Z,85.10
2023-03-13T13:03:32.084Z,84.90
2023-03-13T13:06:04.471Z,84.30
2023-03-13T13:08:37.240Z,83.50
2023-03-13T13:11:44.793Z,83.00
2023-03-13T13:14:52.402Z,83.30
2023-03-13T13:17:29.880Z,83.00
2023-03-13T13:19:58.691Z,82.80
2023-03-13T13:22:50.617Z,82.80
2023-03-13T13:25:41.454Z,82.80
2023-03-13T13:28:27.424Z,83.20
2023-03-13T13:30:57.055Z,83.30
2023-03-13T13:33:41.815Z,83.50
2023-03-13T13:36:30.975Z,83.10
2023-03-13T13:39:00.129Z,83.10
2023-03-13T13:41:38.278Z,83.00
2023-03-13T13:44:30.892Z,83.00
2023-03-13T13:47:02.119Z,83.00
2023-03-13T13:49:53.004Z,82.70
2023-03-13T13:52:39.308Z,83.00
2023-03-13T13:55:33.702Z,82.90
2023-03-13T13:58:05.448Z,83.30
2023-03-13T14:00:42.034Z,83.20
2023-03-13T14:03:22.719Z,83.50
2023-03-13T14:05:54.440Z,83.50
2023-03-13T14:08:27.142Z,83.50
2023-03-13T14:11:05.843Z,83.50
2023-03-13T14:13:33.908Z,83.40
2023-03-13T14:16:24.567Z,83.50
2023-03-13T14:18:53.594Z,83.20
2023-03-13T14:21:24.087Z,82.70
2023-03-13T14:23:52.578Z,83.00
2023-03-13T14:26:22.084Z,82.40
2023-03-13T14:28:51.974Z,83.30
2023-03-13T14:31:30.284Z,82.30
2023-03-13T14:33:59.682Z,82.10
2023-03-13T14:36:28.145Z,82.20
2023-03-13T14:38:58.126Z,82.00
2023-03-13T14:41:31.455Z,82.30
2023-03-13T14:44:07.475Z,82.70
2023-03-13T14:46:41.412Z,82.70
2023-03-13T14:49:17.174Z,83.80
2023-03-13T14:51:45.437Z,83.20
2023-03-13T14:54:32.488Z,83.20
2023-03-13T14:57:05.427Z,83.40
2023-03-13T14:59:33.805Z,83.80
2023-03-13T15:02:13.911Z,83.80
2023-03-13T15:04:53.291Z,83.60
2023-03-13T15:07:22.204Z,83.60
2023-03-13T15:09:51.100Z,83.60
2023-03-13T15:12:21.744Z,83.60
2023-03-13T15:14:51.778Z,83.90
2023-03-13T15:17:22.981Z,83.80
2023-03-13T15:19:53.495Z,83.80
2023-03-13T15:22:27.016Z,83.80
2023-03-13T15:25:05.778Z,83.50
2023-03-13T15:27:34.930Z,83.60
2023-03-13T15:30:03.012Z,83.50
2023-03-13T15:32:35.538Z,83.60
2023-03-13T15:35:03.924Z,83.70
2023-03-13T15:37:32.830Z,83.70
2023-03-13T15:40:00.803Z,83.80
2023-03-13T15:42:28.825Z,83.80
2023-03-13T15:44:56.833Z,83.80
2023-03-13T15:47:24.818Z,84.00
2023-03-13T15:49:54.123Z,84.10
2023-03-13T15:52:23.625Z,84.00
2023-03-13T15:54:52.328Z,84.10
2023-03-13T15:57:24.061Z,84.20
2023-03-13T15:59:52.197Z,84.30
2023-03-13T16:02:21.775Z,84.30
2023-03-13T16:04:50.109Z,84.00
2023-03-13T16:07:21.342Z,84.10
2023-03-13T16:09:49.723Z,84.30
2023-03-13T16:12:17.999Z,83.70
2023-03-13T16:14:46.037Z,84.50
2023-03-13T16:17:16.297Z,83.70
2023-03-13T16:19:44.812Z,83.60
2023-03-13T16:22:13.177Z,83.80
2023-03-13T16:24:42.769Z,83.80
2023-03-13T16:27:14.984Z,83.80
2023-03-13T16:29:43.132Z,83.80
2023-03-13T16:32:13.987Z,83.30
2023-03-13T16:34:43.018Z,83.30
2023-03-13T16:37:16.425Z,83.80
2023-03-13T16:39:47.033Z,84.00
2023-03-13T16:42:15.618Z,84.30
2023-03-13T16:44:43.655Z,84.30
2023-03-13T16:47:23.251Z,84.70
2023-03-13T16:49:51.242Z,84.60
2023-03-13T16:52:19.468Z,84.70
2023-03-13T16:54:48.823Z,85.10
2023-03-13T16:57:19.315Z,85.20
2023-03-13T16:59:47.287Z,85.50
2023-03-13T17:02:17.419Z,85.40
2023-03-13T17:04:46.109Z,85.40
2023-03-13T17:07:20.138Z,85.70
2023-03-13T17:09:50.102Z,85.80
2023-03-13T17:12:19.005Z,85.90
2023-03-13T17:14:47.912Z,86.40
2023-03-13T17:17:18.837Z,86.60
2023-03-13T17:19:47.237Z,86.80
2023-03-13T17:22:17.504Z,86.90
2023-03-13T17:24:45.621Z,87.10
2023-03-13T17:27:16.896Z,87.00
2023-03-13T17:29:45.963Z,87.00
2023-03-13T17:32:15.016Z,87.20
2023-03-13T17:34:43.366Z,88.10
2023-03-13T17:37:16.094Z,87.50
2023-03-13T17:39:44.765Z,87.90
2023-03-13T17:42:13.203Z,87.90
2023-03-13T17:44:42.687Z,87.90
2023-03-13T17:47:17.112Z,88.20
2023-03-13T17:49:46.307Z,88.40
2023-03-13T17:52:15.709Z,88.20
2023-03-13T17:54:44.027Z,88.40
2023-03-13T17:57:16.405Z,88.70
2023-03-13T17:59:46.650Z,88.50
2023-03-13T18:02:16.478Z,88.70
2023-03-13T18:04:45.079Z,89.00
2023-03-13T18:07:18.439Z,89.00
2023-03-13T18:09:47.803Z,89.50
2023-03-13T18:12:16.740Z,89.80
2023-03-13T18:14:46.780Z,89.60
2023-03-13T18:17:17.102Z,89.90
2023-03-13T18:19:45.662Z,90.00
2023-03-13T18:22:16.371Z,90.00
2023-03-13T18:24:44.544Z,90.10
2023-03-13T18:27:14.355Z,90.10
2023-03-13T18:29:42.706Z,90.20
2023-03-13T18:32:14.446Z,90.20
2023-03-13T18:34:43.404Z,90.30
2023-03-13T18:37:22.562Z,90.20
2023-03-13T18:39:51.358Z,90.30
2023-03-13T18:42:19.705Z,90.60
2023-03-13T18:44:47.717Z,90.70
2023-03-13T18:47:18.899Z,90.70
2023-03-13T18:49:48.189Z,90.70
2023-03-13T18:52:16.447Z,90.70
2023-03-13T18:54:45.109Z,90.60
2023-03-13T18:57:14.674Z,90.80
2023-03-13T18:59:43.328Z,90.90
2023-03-13T19:02:14.970Z,91.00
2023-03-13T19:04:45.846Z,90.90
2023-03-13T19:07:16.458Z,91.00
2023-03-13T19:09:46.762Z,91.10
2023-03-13T19:12:16.466Z,91.40
2023-03-13T19:14:44.462Z,91.70
2023-03-13T19:17:19.799Z,91.60
2023-03-13T19:19:49.144Z,91.60
2023-03-13T19:22:17.270Z,91.50
2023-03-13T19:24:45.377Z,91.60
2023-03-13T19:27:17.019Z,91.80
2023-03-13T19:29:45.629Z,91.80
2023-03-13T19:32:15.428Z,91.60
2023-03-13T19:34:43.689Z,91.60
2023-03-13T19:37:14.241Z,91.80
2023-03-13T19:39:42.706Z,91.60
2023-03-13T19:42:10.721Z,91.20
2023-03-13T19:44:40.468Z,91.90
2023-03-13T19:47:11.055Z,91.60
2023-03-13T19:49:39.065Z,91.80
2023-03-13T19:52:07.056Z,91.90
2023-03-13T19:54:36.467Z,92.10
2023-03-13T19:57:04.971Z,91.80
2023-03-13T19:59:35.354Z,91.90
2023-03-13T20:02:06.299Z,92.20
2023-03-13T20:04:34.545Z,92.40
2023-03-13T20:07:03.572Z,92.20
2023-03-13T20:09:31.610Z,92.10
2023-03-13T20:12:01.027Z,92.40
2023-03-13T20:14:29.282Z,92.70
2023-03-13T20:16:57.251Z,92.80
2023-03-13T20:19:29.185Z,92.30
2023-03-13T20:22:00.598Z,92.00
2023-03-13T20:24:28.535Z,92.20
2023-03-13T20:26:56.615Z,92.10
2023-03-13T20:29:26.110Z,92.40
2023-03-13T20:31:54.072Z,92.60
2023-03-13T20:34:22.072Z,92.70
2023-03-13T20:36:50.223Z,92.60
2023-03-13T20:39:18.242Z,92.30
2023-03-13T20:41:46.219Z,92.30
2023-03-13T20:44:14.560Z,92.70
2023-03-13T20:46:43.988Z,92.90
2023-03-13T20:49:12.045Z,92.90
2023-03-13T20:51:40.078Z,93.00
2023-03-13T20:54:08.048Z,93.00
2023-03-13T20:56:36.844Z,93.10
2023-03-13T20:59:05.237Z,93.00
2023-03-13T21:01:33.491Z,93.00
2023-03-13T21:04:04.174Z,93.00
2023-03-13T21:06:32.614Z,92.90
2023-03-13T21:09:00.594Z,92.80
2023-03-13T21:11:28.725Z,92.80
2023-03-13T21:13:57.303Z,92.80
2023-03-13T21:16:25.342Z,92.80
2023-03-13T21:18:54.035Z,92.80
2023-03-13T21:21:23.396Z,92.90
2023-03-13T21:23:53.200Z,93.20
2023-03-13T21:26:22.432Z,93.30
2023-03-13T21:28:52.038Z,93.40
2023-03-13T21:31:21.255Z,93.40
2023-03-13T21:33:50.003Z,93.50
2023-03-13T21:36:20.855Z,93.60
2023-03-13T21:38:51.265Z,93.60
2023-03-13T21:41:21.179Z,93.50
2023-03-13T21:43:49.444Z,93.40
2023-03-13T21:46:19.906Z,93.40
2023-03-13T21:48:48.055Z,93.30
2023-03-13T21:51:16.376Z,93.20
2023-03-13T21:53:44.548Z,93.20
2023-03-13T21:56:15.787Z,93.40
2023-03-13T21:58:45.365Z,93.60
2023-03-13T22:01:13.829Z,93.60
2023-03-13T22:03:42.131Z,93.50
2023-03-13T22:06:14.567Z,93.30
2023-03-13T22:08:42.764Z,93.20
2023-03-13T22:11:10.972Z,93.10
2023-03-13T22:13:40.365Z,93.10
2023-03-13T22:16:10.430Z,93.20
2023-03-13T22:18:38.663Z,93.20
2023-03-13T22:21:07.242Z,93.20
2023-03-13T22:23:35.315Z,93.10
2023-03-13T22:26:03.474Z,93.10
2023-03-13T22:28:31.681Z,93.60
2023-03-13T22:31:02.715Z,93.50
2023-03-13T22:33:31.041Z,93.60
2023-03-13T22:35:59.305Z,93.50
2023-03-13T22:38:27.473Z,93.30
2023-03-13T22:40:59.503Z,93.30
2023-03-13T22:43:27.719Z,93.30
2023-03-13T22:45:55.940Z,93.40
2023-03-13T22:48:25.739Z,93.20
2023-03-13T22:51:01.039Z,93.30
2023-03-13T22:53:29.143Z,93.50
2023-03-13T22:55:57.170Z,93.50
2023-03-13T22:58:25.253Z,93.70
2023-03-13T23:00:53.589Z,93.70
2023-03-13T23:03:22.166Z,93.70
2023-03-13T23:05:51.520Z,93.60
2023-03-13T23:08:20.016Z,93.50
2023-03-13T23:10:48.823Z,93.50
2023-03-13T23:13:16.938Z,93.30
2023-03-13T23:15:55.777Z,93.20
2023-03-13T23:18:24.551Z,93.40
2023-03-13T23:20:54.818Z,93.20
2023-03-13T23:23:22.991Z,93.30
2023-03-13T23:25:51.305Z,93.30
2023-03-13T23:28:19.349Z,93.00
2023-03-13T23:30:47.354Z,93.10
2023-03-13T23:33:15.336Z,93.20
2023-03-13T23:35:44.015Z,93.40
2023-03-13T23:38:14.045Z,93.70
2023-03-13T23:40:42.016Z,93.60
2023-03-13T23:43:10.113Z,93.90
2023-03-13T23:45:38.069Z,94.00
2023-03-13T23:48:06.539Z,94.00
2023-03-13T23:50:34.515Z,94.00
2023-03-13T23:53:02.488Z,93.90
2023-03-13T23:55:31.927Z,94.00
2023-03-13T23:57:59.947Z,94.30
